Time;durP1;ratioP1;P1;durP2;ratioP2;P2;SDS_P1;SDS_P2;PMS_P1;PMS_P2;Temp;Humidity;BMP_temperature;BMP_pressure;BME280_temperature;BME280_humidity;BME280_pressure;Samples;Min_cycle;Max_cycle;Signal;HPM_P1;HPM_P2
2023/02/11 00:00:19;;;;;;;21.77;8.15;;;;;;;6.40;100.00;103330.19;5032731;28;20667;-64
2023/02/11 00:02:45;;;;;;;17.30;7.65;;;;;;;6.41;100.00;103315.41;5032627;28;20054;-64
2023/02/11 00:05:13;;;;;;;24.27;8.02;;;;;;;6.38;100.00;103332.03;5034486;28;20099;-64
2023/02/11 00:07:40;;;;;;;16.55;7.38;;;;;;;6.42;100.00;103325.78;5026919;28;20049;-64
2023/02/11 00:10:07;;;;;;;22.15;7.68;;;;;;;6.46;100.00;103329.13;5028960;28;20565;-64
2023/02/11 00:12:35;;;;;;;17.55;7.63;;;;;;;6.41;100.00;103337.13;5038562;28;20457;-63
2023/02/11 00:15:02;;;;;;;18.67;7.23;;;;;;;6.42;100.00;103336.22;5031097;28;20053;-64
2023/02/11 00:17:30;;;;;;;14.98;6.50;;;;;;;6.38;100.00;103334.63;5034686;28;20048;-63
2023/02/11 00:19:57;;;;;;;14.98;7.28;;;;;;;6.39;100.00;103331.13;5023565;28;20779;-63
2023/02/11 00:22:23;;;;;;;14.63;7.40;;;;;;;6.41;100.00;103320.63;5032206;28;20448;-64
2023/02/11 00:24:49;;;;;;;20.38;7.18;;;;;;;6.39;100.00;103325.03;5018503;28;20049;-64
2023/02/11 00:27:16;;;;;;;16.52;7.10;;;;;;;6.44;100.00;103318.75;5029190;28;20098;-65
2023/02/11 00:29:42;;;;;;;18.92;7.00;;;;;;;6.44;100.00;103312.69;5032638;28;20049;-63
2023/02/11 00:32:09;;;;;;;16.10;7.30;;;;;;;6.40;100.00;103319.78;5027613;28;20045;-63
2023/02/11 00:34:36;;;;;;;12.23;6.53;;;;;;;6.39;100.00;103320.69;5033455;28;20512;-64
2023/02/11 00:37:04;;;;;;;23.13;7.25;;;;;;;6.39;100.00;103323.31;5024135;28;20529;-64
2023/02/11 00:39:30;;;;;;;17.88;7.72;;;;;;;6.34;100.00;103326.06;5034902;28;20602;-63
2023/02/11 00:41:57;;;;;;;17.00;6.63;;;;;;;6.39;100.00;103322.44;5026201;28;20413;-65
2023/02/11 00:44:24;;;;;;;18.83;6.88;;;;;;;6.37;100.00;103332.06;5036604;28;20409;-64
2023/02/11 00:46:50;;;;;;;20.83;6.97;;;;;;;6.39;100.00;103335.47;5039244;28;20497;-63
2023/02/11 00:49:16;;;;;;;17.38;7.80;;;;;;;6.40;100.00;103338.03;5029842;28;20506;-64
2023/02/11 00:51:43;;;;;;;17.85;6.63;;;;;;;6.44;100.00;103343.97;5029617;28;20048;-65
2023/02/11 00:54:09;;;;;;;19.02;7.28;;;;;;;6.46;100.00;103342.16;5028900;28;20056;-64
2023/02/11 00:56:36;;;;;;;18.63;6.53;;;;;;;6.46;100.00;103348.22;5038672;28;20049;-64
2023/02/11 00:59:02;;;;;;;16.73;6.18;;;;;;;6.42;100.00;103338.81;5016064;28;20281;-63
2023/02/11 01:01:29;;;;;;;15.45;6.55;;;;;;;6.41;100.00;103342.34;5033076;28;20053;-64
2023/02/11 01:03:55;;;;;;;17.45;7.70;;;;;;;6.39;100.00;103333.72;5034352;28;20048;-63
2023/02/11 01:06:22;;;;;;;25.92;7.57;;;;;;;6.31;100.00;103339.22;5018384;28;20049;-66
2023/02/11 01:08:48;;;;;;;18.88;6.65;;;;;;;6.32;100.00;103337.47;5027178;28;20049;-64
2023/02/11 01:11:18;;;;;;;21.00;6.55;;;;;;;6.31;100.00;103320.09;5036141;28;20226;-64
2023/02/11 01:13:45;;;;;;;15.52;6.85;;;;;;;6.31;100.00;103315.78;5032260;28;20056;-63
2023/02/11 01:16:12;;;;;;;16.67;6.38;;;;;;;6.31;100.00;103315.78;5032944;28;20049;-63
2023/02/11 01:18:40;;;;;;;19.02;6.60;;;;;;;6.31;100.00;103313.16;5032643;28;20551;-64
2023/02/11 01:21:07;;;;;;;17.02;6.38;;;;;;;6.32;100.00;103301.81;5024598;28;20127;-63
2023/02/11 01:23:33;;;;;;;17.00;6.60;;;;;;;6.24;100.00;103285.63;5025574;28;20425;-65
2023/02/11 01:26:00;;;;;;;15.18;6.03;;;;;;;6.29;100.00;103301.06;5031000;28;20053;-64
2023/02/11 01:28:29;;;;;;;18.50;7.22;;;;;;;6.26;100.00;103301.22;5028886;28;20572;-63
2023/02/11 01:30:55;;;;;;;16.95;6.25;;;;;;;6.23;100.00;103291.72;5043286;28;20501;-65
2023/02/11 01:33:23;;;;;;;21.20;7.55;;;;;;;6.25;100.00;103286.47;5027376;28;20055;-66
2023/02/11 01:35:49;;;;;;;17.35;6.65;;;;;;;6.22;100.00;103289.19;5033723;28;20730;-65
2023/02/11 01:38:22;;;;;;;26.05;6.13;;;;;;;6.23;100.00;103283.91;5036294;28;20048;-63
2023/02/11 01:40:51;;;;;;;14.05;6.22;;;;;;;6.27;100.00;103298.56;5022065;28;20490;-64
2023/02/11 01:43:18;;;;;;;;;;;;;;;6.26;100.00;103293.38;5038217;28;20163;-65
2023/02/11 01:45:45;;;;;;;13.60;6.03;;;;;;;6.21;100.00;103285.72;5031348;28;19924;-65
2023/02/11 01:48:16;;;;;;;18.00;6.67;;;;;;;6.27;100.00;103295.06;5024520;28;20481;-64
2023/02/11 01:50:45;;;;;;;15.50;6.47;;;;;;;6.32;100.00;103314.84;5033595;28;20053;-66
2023/02/11 01:58:46;;;;;;;17.00;6.15;;;;;;;6.37;100.00;103325.13;5036231;28;20439;-64
2023/02/11 02:01:16;;;;;;;14.63;6.20;;;;;;;6.34;100.00;103313.03;5027990;28;20059;-64
2023/02/11 02:03:47;;;;;;;17.00;5.88;;;;;;;6.37;100.00;103306.88;5025237;28;20437;-65
2023/02/11 02:06:30;;;;;;;19.65;6.13;;;;;;;6.33;100.00;103320.91;5037310;28;20596;-64
2023/02/11 02:09:08;;;;;;;15.40;5.75;;;;;;;6.37;100.00;103319.91;5035170;28;20053;-64
2023/02/11 02:11:35;;;;;;;24.07;7.03;;;;;;;6.34;100.00;103317.41;5029992;28;20490;-66
2023/02/11 02:14:02;;;;;;;14.85;6.20;;;;;;;6.28;100.00;103321.09;5021591;28;20711;-66
2023/02/11 02:16:35;;;;;;;16.33;5.35;;;;;;;6.29;100.00;103321.94;5030785;28;20723;-67
2023/02/11 02:19:10;;;;;;;19.48;6.00;;;;;;;6.31;100.00;103309.69;5031532;28;20136;-66
2023/02/11 02:21:51;;;;;;;16.30;6.65;;;;;;;6.29;100.00;103299.34;5032821;28;20143;-66
2023/02/11 02:24:37;;;;;;;17.30;5.68;;;;;;;6.34;100.00;103294.78;5034006;28;20111;-67
2023/02/11 02:27:14;;;;;;;17.17;5.65;;;;;;;6.31;100.00;103291.44;5028769;28;20600;-67
2023/02/11 02:30:06;;;;;;;16.17;6.78;;;;;;;6.31;100.00;103287.09;5023580;28;20059;-67
2023/02/11 02:32:50;;;;;;;15.63;5.93;;;;;;;6.28;100.00;103284.59;5029669;28;20060;-66
2023/02/11 02:35:38;;;;;;;19.88;5.72;;;;;;;6.34;100.00;103280.91;5026069;28;20048;-67
2023/02/11 02:38:22;;;;;;;19.67;6.57;;;;;;;6.31;100.00;103279.28;5024040;28;20181;-67
2023/02/11 02:40:53;;;;;;;21.92;6.50;;;;;;;6.25;100.00;103279.50;5026119;28;20053;-67
2023/02/11 02:43:22;;;;;;;17.58;6.20;;;;;;;6.21;100.00;103279.66;5027888;28;20469;-67
2023/02/11 02:45:48;;;;;;;;;;;;;;;6.23;100.00;103280.47;5031552;28;20525;-67
2023/02/11 02:48:24;;;;;;;15.88;6.05;;;;;;;6.19;100.00;103273.66;5022026;28;19924;-66
2023/02/11 02:51:12;;;;;;;16.50;6.10;;;;;;;6.20;100.00;103264.94;5026251;28;20059;-67
2023/02/11 02:54:08;;;;;;;14.52;6.07;;;;;;;6.21;100.00;103272.69;5030745;28;20045;-67
2023/02/11 02:57:02;;;;;;;19.40;6.07;;;;;;;6.21;100.00;103264.88;5035925;28;20436;-67
2023/02/11 03:00:17;;;;;;;15.48;5.68;;;;;;;6.19;100.00;103273.66;5030659;28;20048;-67
2023/02/11 03:03:25;;;;;;;15.93;5.90;;;;;;;6.22;100.00;103263.13;5006064;28;20048;-66
2023/02/11 03:06:20;;;;;;;23.10;6.57;;;;;;;6.19;100.00;103269.28;5023766;28;20055;-66
2023/02/11 03:08:58;;;;;;;23.48;6.05;;;;;;;6.15;100.00;103272.91;5037900;28;20064;-67
2023/02/11 03:11:26;;;;;;;21.50;5.85;;;;;;;6.14;100.00;103269.47;5034574;28;20409;-67
2023/02/11 03:13:53;;;;;;;20.63;6.63;;;;;;;6.16;100.00;103271.19;5039648;28;20053;-67
2023/02/11 03:16:25;;;;;;;21.73;6.20;;;;;;;6.14;100.00;103263.41;5039070;28;20489;-67
2023/02/11 03:19:00;;;;;;;15.90;6.47;;;;;;;6.17;100.00;103270.25;5035132;28;20580;-68
2023/02/11 03:21:30;;;;;;;22.38;6.78;;;;;;;6.10;100.00;103265.28;5036868;28;20055;-65
2023/02/11 03:24:01;;;;;;;18.75;6.35;;;;;;;6.12;100.00;103265.25;5027663;28;20076;-65
2023/02/11 03:26:35;;;;;;;18.40;6.90;;;;;;;6.08;100.00;103259.28;5035713;28;20607;-66
2023/02/11 03:29:20;;;;;;;14.70;5.70;;;;;;;6.07;100.00;103259.34;5013684;28;20136;-64
2023/02/11 03:31:59;;;;;;;18.25;6.55;;;;;;;6.12;100.00;103260.88;5037464;28;20057;-66
2023/02/11 03:34:46;;;;;;;21.83;6.38;;;;;;;6.13;100.00;103252.16;5021987;28;20125;-65
2023/02/11 03:37:32;;;;;;;16.20;6.18;;;;;;;6.13;100.00;103252.16;5031417;28;20108;-65
2023/02/11 03:40:01;;;;;;;18.38;7.05;;;;;;;6.14;100.00;103260.81;5022491;28;20056;-64
2023/02/11 03:42:37;;;;;;;17.33;7.30;;;;;;;6.12;100.00;103247.00;5025732;28;20112;-67
2023/02/11 03:45:11;;;;;;;20.08;6.72;;;;;;;6.09;100.00;103239.28;5029143;28;20410;-65
2023/02/11 03:47:40;;;;;;;21.00;7.25;;;;;;;6.04;100.00;103243.84;5034763;28;20053;-65
2023/02/11 03:50:09;;;;;;;17.48;7.55;;;;;;;6.02;100.00;103241.28;5040292;28;20057;-65
2023/02/11 03:52:37;;;;;;;22.00;7.22;;;;;;;6.08;100.00;103242.81;5035372;28;20049;-64
2023/02/11 03:55:11;;;;;;;19.23;6.73;;;;;;;6.09;100.00;103241.88;5044227;28;20049;-64
2023/02/11 03:57:38;;;;;;;21.98;7.07;;;;;;;6.01;100.00;103246.53;5029123;28;20689;-66
2023/02/11 04:00:07;;;;;;;17.50;7.07;;;;;;;6.07;100.00;103248.91;5036012;28;20055;-64
2023/02/11 04:02:36;;;;;;;22.85;7.05;;;;;;;6.05;100.00;103241.16;5039177;28;20047;-64
2023/02/11 04:05:05;;;;;;;18.30;7.80;;;;;;;6.02;100.00;103254.31;5035584;28;20052;-64
2023/02/11 04:07:32;;;;;;;19.75;7.35;;;;;;;6.10;100.00;103264.44;5047514;28;20049;-64
2023/02/11 04:09:59;;;;;;;24.38;7.63;;;;;;;6.13;100.00;103262.59;5025522;28;20161;-64
2023/02/11 04:12:25;;;;;;;13.65;7.53;;;;;;;6.18;100.00;103261.56;5029978;28;20053;-65
2023/02/11 04:14:52;;;;;;;22.52;7.47;;;;;;;6.14;100.00;103269.47;5026878;28;20049;-66
2023/02/11 04:17:18;;;;;;;17.40;7.70;;;;;;;6.16;100.00;103274.63;5034181;28;20430;-64
2023/02/11 04:19:45;;;;;;;22.67;8.25;;;;;;;6.16;100.00;103286.81;5007968;28;20055;-66
2023/02/11 04:22:11;;;;;;;19.85;7.40;;;;;;;6.16;100.00;103290.28;5048297;28;20061;-65
2023/02/11 04:24:38;;;;;;;16.10;7.63;;;;;;;6.22;100.00;103284.00;5036262;28;20064;-66
2023/02/11 04:27:04;;;;;;;17.95;8.05;;;;;;;6.20;100.00;103278.81;5017837;28;20521;-65
2023/02/11 04:29:31;;;;;;;23.60;7.75;;;;;;;6.17;100.00;103270.25;5021943;28;20053;-64
2023/02/11 04:31:57;;;;;;;21.73;7.57;;;;;;;6.18;100.00;103265.00;5027967;28;20517;-65
2023/02/11 04:34:24;;;;;;;20.80;7.70;;;;;;;6.19;100.00;103268.44;5029630;28;20057;-65
2023/02/11 04:36:50;;;;;;;16.38;7.93;;;;;;;6.17;100.00;103272.88;5041559;28;20052;-65
2023/02/11 04:39:17;;;;;;;17.20;7.75;;;;;;;6.16;100.00;103259.00;5030742;28;20049;-65
2023/02/11 04:41:44;;;;;;;18.38;7.55;;;;;;;6.20;100.00;103272.78;5035317;28;20052;-64
2023/02/11 04:44:10;;;;;;;24.20;9.15;;;;;;;6.21;100.00;103272.69;5030017;28;20044;-65
2023/02/11 04:46:36;;;;;;;19.30;8.77;;;;;;;6.26;100.00;103273.38;5034846;28;20049;-65
2023/02/11 04:49:03;;;;;;;25.70;9.10;;;;;;;6.27;100.00;103277.69;5018932;28;20055;-65
2023/02/11 04:51:29;;;;;;;18.77;7.88;;;;;;;6.28;100.00;103271.56;5035273;28;20142;-65
2023/02/11 04:53:56;;;;;;;23.50;9.30;;;;;;;6.26;100.00;103268.16;5035706;28;20561;-65
2023/02/11 04:56:22;;;;;;;21.73;8.98;;;;;;;6.29;100.00;103280.22;5020402;28;20045;-65
2023/02/11 04:58:49;;;;;;;19.73;9.02;;;;;;;6.23;100.00;103272.63;5025038;28;20059;-65
2023/02/11 05:01:15;;;;;;;20.17;8.30;;;;;;;6.22;100.00;103268.34;5032687;28;20095;-66
2023/02/11 05:03:42;;;;;;;21.95;9.52;;;;;;;6.23;100.00;103267.41;5026640;28;20059;-64
2023/02/11 05:06:10;;;;;;;17.58;8.70;;;;;;;6.26;100.00;103273.38;5032388;28;20045;-65
2023/02/11 05:08:36;;;;;;;19.73;8.82;;;;;;;6.23;100.00;103265.66;5031123;28;20063;-65
2023/02/11 05:11:03;;;;;;;20.13;10.07;;;;;;;6.20;100.00;103267.56;5023221;28;20057;-67
2023/02/11 05:13:30;;;;;;;29.13;9.43;;;;;;;6.22;100.00;103261.38;5021656;28;20498;-63
2023/02/11 05:15:56;;;;;;;21.15;9.88;;;;;;;6.23;100.00;103265.66;5036113;28;20056;-65
2023/02/11 05:18:23;;;;;;;24.85;9.60;;;;;;;6.23;100.00;103260.44;5024093;28;20675;-64
2023/02/11 05:20:49;;;;;;;25.10;8.95;;;;;;;6.24;100.00;103267.38;5036531;28;20065;-65
2023/02/11 05:23:16;;;;;;;19.65;8.60;;;;;;;6.31;100.00;103268.84;5034438;28;20045;-65
2023/02/11 05:25:42;;;;;;;22.00;9.70;;;;;;;6.28;100.00;103276.78;5024730;28;20417;-63
2023/02/11 05:28:09;;;;;;;21.40;10.25;;;;;;;6.28;100.00;103271.56;5018954;28;20057;-63
2023/02/11 05:30:35;;;;;;;22.17;9.85;;;;;;;6.30;100.00;103284.53;5035399;28;20053;-65
2023/02/11 05:33:02;;;;;;;20.80;9.88;;;;;;;6.27;100.00;103277.69;5024918;28;20383;-63
2023/02/11 05:35:29;;;;;;;23.35;10.48;;;;;;;6.32;100.00;103272.28;5038569;28;20048;-64
2023/02/11 05:37:55;;;;;;;20.20;10.15;;;;;;;6.29;100.00;103272.41;5001755;28;20430;-64
2023/02/11 05:40:22;;;;;;;21.17;9.93;;;;;;;6.30;100.00;103279.31;5005184;28;20053;-62
2023/02/11 05:42:48;;;;;;;31.42;11.10;;;;;;;6.23;100.00;103275.25;5030057;28;20461;-66
2023/02/11 05:45:14;;;;;;;22.30;10.90;;;;;;;6.26;100.00;103275.13;5037125;28;20063;-64
2023/02/11 05:47:41;;;;;;;25.10;10.90;;;;;;;6.26;100.00;103278.59;5022473;28;20089;-64
2023/02/11 05:50:08;;;;;;;25.33;10.77;;;;;;;6.28;100.00;103291.56;5043325;28;20106;-63
2023/02/11 05:52:34;;;;;;;24.67;10.90;;;;;;;6.25;100.00;103276.03;5034261;28;20053;-65
2023/02/11 05:55:01;;;;;;;28.10;11.15;;;;;;;6.29;100.00;103275.88;5042577;28;20056;-64
2023/02/11 05:57:28;;;;;;;25.10;10.85;;;;;;;6.34;100.00;103281.75;5038755;28;20096;-63
2023/02/11 05:59:54;;;;;;;25.95;11.20;;;;;;;6.30;100.00;103293.19;5032627;28;20162;-65
2023/02/11 06:02:21;;;;;;;26.67;11.93;;;;;;;6.31;100.00;103283.63;5034599;28;20063;-66
2023/02/11 06:04:48;;;;;;;25.17;11.05;;;;;;;6.32;100.00;103287.94;5034234;28;20224;-63
2023/02/11 06:07:16;;;;;;;25.75;12.60;;;;;;;6.32;100.00;103291.38;5033894;28;20076;-64
2023/02/11 06:09:42;;;;;;;23.40;11.63;;;;;;;6.32;100.00;103283.56;5030141;28;20122;-65
2023/02/11 06:12:09;;;;;;;25.83;11.77;;;;;;;6.32;100.00;103293.16;5041004;28;20107;-65
2023/02/11 06:14:35;;;;;;;21.73;10.95;;;;;;;6.36;100.00;103291.28;5037063;28;20131;-64
2023/02/11 06:17:02;;;;;;;24.52;11.52;;;;;;;6.41;100.00;103289.31;5042494;28;20049;-64
2023/02/11 06:19:30;;;;;;;24.63;11.43;;;;;;;6.34;100.00;103284.34;5032653;28;20091;-63
2023/02/11 06:21:56;;;;;;;26.92;12.63;;;;;;;6.35;100.00;103280.00;5017631;28;20056;-64
2023/02/11 06:24:23;;;;;;;25.58;12.18;;;;;;;6.33;100.00;103277.47;5037264;28;20128;-64
2023/02/11 06:27:09;;;;;;;28.80;13.10;;;;;;;6.38;100.00;103274.66;5029885;28;20119;-64
2023/02/11 06:29:36;;;;;;;29.40;14.27;;;;;;;6.35;100.00;103277.41;5024782;28;20040;-64
2023/02/11 06:32:03;;;;;;;23.92;13.02;;;;;;;6.30;100.00;103280.16;5028126;28;20052;-64
2023/02/11 06:34:29;;;;;;;29.50;13.80;;;;;;;6.32;100.00;103282.72;5038417;28;20045;-64
2023/02/11 06:36:56;;;;;;;33.10;14.15;;;;;;;6.29;100.00;103277.63;5040578;28;20097;-64
2023/02/11 06:39:22;;;;;;;28.42;13.98;;;;;;;6.32;100.00;103278.34;5018720;28;20531;-64
2023/02/11 06:41:49;;;;;;;24.63;13.30;;;;;;;6.33;100.00;103282.66;5038304;28;20049;-64
2023/02/11 06:44:15;;;;;;;29.77;13.50;;;;;;;6.32;100.00;103291.38;5018644;28;20596;-64
2023/02/11 06:46:42;;;;;;;25.52;13.13;;;;;;;6.36;100.00;103292.13;5015432;28;20053;-65
2023/02/11 06:49:08;;;;;;;29.80;14.50;;;;;;;6.28;100.00;103281.97;5020295;28;20569;-64
2023/02/11 06:51:35;;;;;;;30.00;14.20;;;;;;;6.27;100.00;103292.47;5040762;28;20053;-63
2023/02/11 06:54:04;;;;;;;35.75;14.55;;;;;;;6.30;100.00;103288.00;5040785;28;20049;-64
2023/02/11 06:56:31;;;;;;;;;;;;;;;6.31;100.00;103297.53;5013018;28;20690;-64
2023/02/11 06:58:57;;;;;;;30.48;14.15;;;;;;;6.26;100.00;103294.22;5027588;28;19947;-63
2023/02/11 07:01:26;;;;;;;33.63;13.98;;;;;;;6.28;100.00;103299.38;5024407;28;20248;-65
2023/02/11 07:03:53;;;;;;;28.45;14.80;;;;;;;6.33;100.00;103297.44;5023553;28;20053;-65
2023/02/11 07:06:23;;;;;;;34.03;15.00;;;;;;;6.34;100.00;103297.38;5020298;28;20141;-64
2023/02/11 07:08:50;;;;;;;37.22;14.98;;;;;;;6.31;100.00;103294.91;5030061;28;20058;-65
2023/02/11 07:11:19;;;;;;;32.22;15.10;;;;;;;6.28;100.00;103295.00;5031326;28;20724;-64
2023/02/11 07:13:46;;;;;;;33.00;15.18;;;;;;;6.32;100.00;103298.38;5021799;28;20183;-63
2023/02/11 07:16:15;;;;;;;37.45;15.68;;;;;;;6.27;100.00;103302.88;5036606;28;20053;-64
2023/02/11 07:18:42;;;;;;;31.55;15.95;;;;;;;6.30;100.00;103303.63;5011163;28;20552;-63
2023/02/11 07:21:11;;;;;;;38.78;16.15;;;;;;;6.37;100.00;103312.09;5011475;28;20139;-64
2023/02/11 07:23:39;;;;;;;37.47;16.88;;;;;;;6.39;100.00;103312.00;5029494;28;20050;-64
2023/02/11 07:26:08;;;;;;;44.42;17.85;;;;;;;6.39;100.00;103317.22;5037413;28;20045;-65
2023/02/11 07:28:36;;;;;;;42.85;18.25;;;;;;;6.30;100.00;103310.59;5026530;28;20553;-66
2023/02/11 07:31:11;;;;;;;37.58;17.13;;;;;;;6.36;100.00;103318.19;5027092;28;20045;-65
2023/02/11 07:33:39;;;;;;;33.60;15.98;;;;;;;6.31;100.00;103317.50;5039985;28;20073;-65
2023/02/11 07:36:07;;;;;;;42.45;18.45;;;;;;;6.34;100.00;103318.25;5029910;28;20052;-65
2023/02/11 07:38:35;;;;;;;37.70;17.45;;;;;;;6.38;100.00;103324.19;5030248;28;20045;-65
2023/02/11 07:41:03;;;;;;;34.63;17.03;;;;;;;6.41;100.00;103324.09;5018806;28;20103;-66
2023/02/11 07:43:30;;;;;;;38.85;17.67;;;;;;;6.37;100.00;103322.50;5029717;28;20787;-65
2023/02/11 07:45:57;;;;;;;42.30;17.60;;;;;;;6.38;100.00;103326.81;5033720;28;20053;-66
2023/02/11 07:48:23;;;;;;;43.75;20.10;;;;;;;6.33;100.00;103320.91;5022966;28;20064;-65
2023/02/11 07:50:50;;;;;;;45.58;18.95;;;;;;;6.30;100.00;103323.63;5035827;28;20490;-65
2023/02/11 07:53:16;;;;;;;50.65;19.70;;;;;;;6.38;100.00;103325.97;5029671;28;20045;-65
2023/02/11 07:55:43;;;;;;;39.97;18.63;;;;;;;6.34;100.00;103320.84;5032630;28;20045;-66
2023/02/11 07:58:09;;;;;;;43.85;18.60;;;;;;;6.37;100.00;103319.91;5027495;28;20099;-67
2023/02/11 08:00:36;;;;;;;46.30;19.80;;;;;;;6.30;100.00;103328.84;5025563;28;20060;-65
2023/02/11 08:03:02;;;;;;;44.42;19.63;;;;;;;6.30;100.00;103328.84;5034794;28;20056;-64
2023/02/11 08:05:29;;;;;;;44.70;19.63;;;;;;;6.37;100.00;103332.06;5037288;28;20072;-65
2023/02/11 08:07:55;;;;;;;44.35;19.40;;;;;;;6.42;100.00;103332.75;5020471;28;20060;-65
2023/02/11 08:10:22;;;;;;;40.90;19.25;;;;;;;6.42;100.00;103333.59;5026440;28;20059;-65
2023/02/11 08:12:48;;;;;;;52.45;20.67;;;;;;;6.44;100.00;103325.72;5029709;28;20063;-64
2023/02/11 08:15:15;;;;;;;45.08;20.17;;;;;;;6.42;100.00;103325.78;5033935;28;20059;-65
2023/02/11 08:17:41;;;;;;;51.42;21.63;;;;;;;6.43;100.00;103329.22;5034406;28;20061;-65
2023/02/11 08:20:08;;;;;;;39.05;19.83;;;;;;;6.46;100.00;103321.31;5030751;28;20049;-66
2023/02/11 08:22:34;;;;;;;49.30;22.40;;;;;;;6.44;100.00;103323.13;5032448;28;20085;-65
2023/02/11 08:25:01;;;;;;;45.08;21.08;;;;;;;6.51;100.00;103320.22;5035156;28;20056;-64
2023/02/11 08:27:27;;;;;;;46.30;20.80;;;;;;;6.52;100.00;103326.28;5031640;28;20053;-64
2023/02/11 08:29:54;;;;;;;53.30;20.30;;;;;;;6.52;100.00;103327.13;5035220;28;20045;-63
2023/02/11 08:32:24;;;;;;;38.53;20.63;;;;;;;6.53;100.00;103325.38;5026000;28;20083;-65
2023/02/11 08:34:51;;;;;;;41.60;20.38;;;;;;;6.53;100.00;103321.00;5030976;28;20045;-66
2023/02/11 08:37:18;;;;;;;46.53;21.77;;;;;;;6.57;100.00;103333.94;5034029;28;20553;-65
2023/02/11 08:39:46;;;;;;;43.10;21.08;;;;;;;6.59;100.00;103332.13;5027309;28;20506;-66
2023/02/11 08:42:14;;;;;;;52.20;21.05;;;;;;;6.59;100.00;103339.97;5044170;28;20132;-65
2023/02/11 08:44:42;;;;;;;49.38;22.45;;;;;;;6.62;100.00;103332.00;5034839;28;20055;-64
2023/02/11 08:47:09;;;;;;;44.00;20.58;;;;;;;6.65;100.00;103339.72;5029838;28;20103;-66
2023/02/11 08:49:35;;;;;;;43.22;22.58;;;;;;;6.64;100.00;103346.66;5034955;28;20056;-66
2023/02/11 08:52:03;;;;;;;48.67;23.98;;;;;;;6.62;100.00;103350.25;5034997;28;20394;-64
2023/02/11 08:54:30;;;;;;;49.85;21.95;;;;;;;6.70;100.00;103346.47;5024352;28;20079;-64
2023/02/11 08:56:56;;;;;;;48.08;23.13;;;;;;;6.70;100.00;103363.84;5018570;28;20063;-65
2023/02/11 08:59:23;;;;;;;45.85;22.13;;;;;;;6.78;100.00;103359.19;5027902;28;20053;-64
2023/02/11 09:01:49;;;;;;;59.78;24.65;;;;;;;6.80;100.00;103362.59;5023352;28;20071;-65
2023/02/11 09:04:16;;;;;;;46.45;22.33;;;;;;;6.81;100.00;103356.47;4995743;28;20372;-65
2023/02/11 09:06:42;;;;;;;49.30;24.05;;;;;;;6.87;100.00;103366.66;5037053;28;20049;-66
2023/02/11 09:09:12;;;;;;;50.47;21.50;;;;;;;6.87;100.00;103369.25;5037215;28;20725;-65
2023/02/11 09:11:40;;;;;;;56.78;24.60;;;;;;;6.88;100.00;103370.09;5031008;28;20553;-65
2023/02/11 09:14:07;;;;;;;52.43;23.27;;;;;;;6.92;100.00;103363.88;5016998;28;20045;-65
2023/02/11 09:16:35;;;;;;;46.05;24.17;;;;;;;6.98;100.00;103361.03;5024606;28;20049;-65
2023/02/11 09:19:04;;;;;;;49.08;23.35;;;;;;;7.00;100.00;103372.25;5022738;28;20056;-65
2023/02/11 09:21:31;;;;;;;49.33;22.58;;;;;;;7.03;100.00;103369.50;5030613;28;20114;-66
2023/02/11 09:23:57;;;;;;;55.97;27.67;;;;;;;7.06;100.00;103376.38;5016241;28;20131;-66
2023/02/11 09:26:27;;;;;;;43.83;22.80;;;;;;;7.07;100.00;103391.97;5012194;28;20053;-67
2023/02/11 09:28:54;;;;;;;61.47;24.33;;;;;;;7.10;100.00;103376.19;5028637;28;20077;-66
2023/02/11 09:31:23;;;;;;;54.25;24.50;;;;;;;7.16;100.00;103384.69;5015992;28;20053;-66
2023/02/11 09:33:52;;;;;;;51.35;24.15;;;;;;;7.25;100.00;103385.19;5026191;28;20053;-66
2023/02/11 09:36:24;;;;;;;54.08;24.98;;;;;;;7.23;100.00;103389.63;5019202;28;20259;-65
2023/02/11 09:38:52;;;;;;;59.38;25.05;;;;;;;7.29;100.00;103393.72;5026701;28;20064;-65
2023/02/11 09:41:21;;;;;;;58.85;27.33;;;;;;;7.29;100.00;103391.97;5018847;28;20054;-66
2023/02/11 09:43:51;;;;;;;51.55;24.70;;;;;;;7.30;100.00;103387.59;5026522;28;20056;-66
2023/02/11 09:46:20;;;;;;;54.55;25.45;;;;;;;7.28;100.00;103392.88;5033943;28;20049;-66
2023/02/11 09:48:50;;;;;;;51.75;23.83;;;;;;;7.30;100.00;103393.66;5024293;28;20087;-64
2023/02/11 09:51:37;;;;;;;51.38;23.92;;;;;;;7.37;100.00;103399.50;5027628;28;20064;-63
2023/02/11 09:54:15;;;;;;;51.55;23.92;;;;;;;7.40;100.00;103406.34;5019343;28;20498;-64
2023/02/11 09:56:42;;;;;;;;;;;;;;;7.50;100.00;103407.66;5028992;28;20053;-65
2023/02/11 09:59:16;;;;;;;54.40;24.85;;;;;;;7.53;100.00;103403.19;5022903;28;19929;-65
2023/02/11 10:01:46;;;;;;;49.85;22.50;;;;;;;7.49;100.00;103412.06;5029983;28;20059;-65
2023/02/11 10:04:38;;;;;;;50.63;23.30;;;;;;;7.53;100.00;103416.22;5020449;28;20051;-67
2023/02/11 10:07:24;;;;;;;51.80;24.73;;;;;;;7.57;100.00;103418.75;5025906;28;20132;-66
2023/02/11 10:10:10;;;;;;;49.17;24.83;;;;;;;7.61;100.00;103425.53;5032184;28;20470;-65
2023/02/11 10:12:56;;;;;;;49.10;23.77;;;;;;;7.62;100.00;103425.44;5040300;28;20128;-65
2023/02/11 10:15:52;;;;;;;49.08;23.80;;;;;;;7.69;100.00;103432.13;5038090;28;20046;-65
2023/02/11 10:18:44;;;;;;;52.10;23.77;;;;;;;7.77;100.00;103437.03;5023950;28;20057;-66
2023/02/11 10:21:16;;;;;;;47.08;23.30;;;;;;;7.82;100.00;103435.09;5022222;28;20118;-65
2023/02/11 10:23:47;;;;;;;52.58;26.83;;;;;;;7.79;100.00;103452.66;5027697;28;20046;-65
2023/02/11 10:26:17;;;;;;;50.20;23.13;;;;;;;7.82;100.00;103445.53;5021340;28;20514;-65
2023/02/11 10:28:51;;;;;;;57.20;25.48;;;;;;;7.86;100.00;103456.69;5028121;28;20140;-65
2023/02/11 10:31:32;;;;;;;48.08;24.20;;;;;;;7.86;100.00;103457.56;5032527;28;20517;-64
2023/02/11 10:34:03;;;;;;;44.92;24.35;;;;;;;7.91;100.00;103454.75;5032171;28;20048;-65
2023/02/11 10:36:34;;;;;;;47.47;24.75;;;;;;;7.97;100.00;103457.09;5034714;28;20068;-65
2023/02/11 10:39:31;;;;;;;46.88;21.77;;;;;;;8.01;100.00;103466.50;5016519;28;20053;-66
2023/02/11 10:42:06;;;;;;;46.90;23.23;;;;;;;8.09;100.00;103456.56;5031768;28;20049;-65
2023/02/11 10:44:37;;;;;;;42.63;23.17;;;;;;;8.16;100.00;103461.56;5036858;28;20045;-65
2023/02/11 10:47:27;;;;;;;37.17;21.33;;;;;;;8.19;100.00;103459.63;5019818;28;20505;-65
2023/02/11 10:50:02;;;;;;;44.88;23.15;;;;;;;8.21;100.00;103463.06;5037858;28;20127;-65
2023/02/11 10:52:29;;;;;;;45.97;23.60;;;;;;;8.23;100.00;103461.22;5032515;28;20052;-67
2023/02/11 10:54:57;;;;;;;37.95;22.42;;;;;;;8.26;100.00;103462.84;5041093;28;20045;-65
2023/02/11 10:57:34;;;;;;;40.30;22.38;;;;;;;8.31;100.00;103466.97;5028385;28;20049;-65
2023/02/11 11:00:37;;;;;;;44.03;23.92;;;;;;;8.35;100.00;103477.28;5040134;28;20049;-65
2023/02/11 11:03:17;;;;;;;45.90;22.23;;;;;;;8.37;100.00;103473.72;5012673;28;20102;-66
2023/02/11 11:05:50;;;;;;;41.28;23.05;;;;;;;8.34;100.00;103473.81;5028794;28;20049;-66
2023/02/11 11:08:18;;;;;;;44.92;23.10;;;;;;;8.43;100.00;103473.47;5030163;28;20103;-65
2023/02/11 11:11:02;;;;;;;39.47;22.00;;;;;;;8.45;100.00;103476.03;5037571;28;20048;-66
2023/02/11 11:13:33;;;;;;;42.05;21.98;;;;;;;8.55;100.00;103472.06;5026362;28;20184;-66
2023/02/11 11:16:07;;;;;;;38.33;22.08;;;;;;;8.60;100.00;103474.47;5031956;28;20049;-65
2023/02/11 11:18:34;;;;;;;33.22;20.25;;;;;;;8.64;100.00;103476.88;5037581;28;20477;-65
2023/02/11 11:21:06;;;;;;;40.85;22.73;;;;;;;8.68;100.00;103477.59;5022725;28;20430;-67
2023/02/11 11:23:35;;;;;;;44.15;21.58;;;;;;;8.63;100.00;103474.34;5040297;28;20524;-66
2023/02/11 11:26:06;;;;;;;41.42;21.83;;;;;;;8.72;100.00;103479.16;5025786;28;20053;-65
2023/02/11 11:28:41;;;;;;;38.83;22.27;;;;;;;8.77;100.00;103473.72;5028554;28;20053;-65
2023/02/11 11:31:17;;;;;;;36.22;19.67;;;;;;;8.83;100.00;103465.59;5025929;28;20061;-66
2023/02/11 11:33:46;;;;;;;32.88;20.33;;;;;;;8.81;100.00;103473.50;5041157;28;20124;-65